Time;durP1;ratioP1;P1;durP2;ratioP2;P2;SDS_P1;SDS_P2;PMS_P1;PMS_P2;Temp;Humidity;BMP_temperature;BMP_pressure;BME280_temperature;BME280_humidity;BME280_pressure;Samples;Min_cycle;Max_cycle;Signal;HPM_P1;HPM_P2
2021/08/09 13:12:39;;;;;;;2.03;1.40;;;;;;;26.16;53.99;99293.05;125153;1093;64241;-81
2021/08/09 13:15:06;;;;;;;1.40;1.30;;;;;;;26.24;54.10;99295.64;125120;1092;64804;-81
2021/08/09 13:17:35;;;;;;;3.30;1.80;;;;;;;26.32;54.04;99290.04;125104;1093;64187;-81
2021/08/09 13:20:02;;;;;;;1.80;1.23;;;;;;;26.38;54.05;99288.40;125216;1092;64303;-81
2021/08/09 13:22:30;;;;;;;1.47;1.37;;;;;;;26.38;54.10;99283.77;125139;1093;64491;-80
2021/08/09 13:24:57;;;;;;;1.43;1.20;;;;;;;26.36;52.52;99283.16;125142;1092;64287;-80
2021/08/09 13:27:23;;;;;;;2.25;1.20;;;;;;;26.21;52.26;99291.42;125142;1093;64289;-81
2021/08/09 13:29:50;;;;;;;1.97;1.30;;;;;;;26.20;52.45;99289.74;125085;1093;64217;-80
2021/08/09 13:32:16;;;;;;;2.10;1.50;;;;;;;26.21;52.34;99285.95;125103;1093;64370;-80
2021/08/09 13:34:43;;;;;;;3.57;1.80;;;;;;;26.21;51.93;99282.38;125121;1092;64268;-80
2021/08/09 13:37:10;;;;;;;2.40;1.40;;;;;;;26.24;52.87;99287.45;125092;1093;64239;-80
2021/08/09 13:39:36;;;;;;;2.27;1.60;;;;;;;26.31;53.00;99290.25;125115;1093;64247;-82
2021/08/09 13:42:03;;;;;;;1.43;1.33;;;;;;;26.32;52.14;99286.47;125116;1093;64733;-81
2021/08/09 13:44:29;;;;;;;1.40;1.30;;;;;;;26.30;51.58;99291.28;125136;1093;64173;-80
2021/08/09 13:46:57;;;;;;;1.30;1.20;;;;;;;26.27;50.97;99292.52;125097;1092;64293;-80
2021/08/09 13:49:23;;;;;;;1.37;1.23;;;;;;;26.20;50.24;99283.44;125098;1093;64271;-80
2021/08/09 13:51:50;;;;;;;3.15;1.40;;;;;;;26.08;50.69;99287.73;125096;1093;64268;-80
2021/08/09 13:54:16;;;;;;;2.10;1.27;;;;;;;25.96;50.34;99288.26;125128;1092;64420;-80
2021/08/09 13:56:43;;;;;;;1.83;1.50;;;;;;;25.97;51.80;99283.63;125136;1093;64391;-80
2021/08/09 13:59:10;;;;;;;1.60;1.50;;;;;;;26.09;52.49;99278.48;125145;1093;64248;-80
2021/08/09 14:01:36;;;;;;;2.40;1.70;;;;;;;26.17;52.86;99281.07;125192;1093;64264;-80
2021/08/09 14:04:03;;;;;;;2.45;2.10;;;;;;;26.20;52.08;99275.24;125176;1093;64284;-80
2021/08/09 14:06:29;;;;;;;1.70;1.20;;;;;;;26.24;52.61;99280.09;125066;1093;64303;-81
2021/08/09 14:08:56;;;;;;;3.03;2.00;;;;;;;26.28;52.03;99277.83;125171;1093;64281;-80
2021/08/09 14:11:22;;;;;;;1.60;1.50;;;;;;;26.27;52.61;99274.23;125145;1092;64390;-80
2021/08/09 14:13:49;;;;;;;2.03;1.60;;;;;;;26.34;53.12;99267.99;125194;1093;64268;-80
2021/08/09 14:16:15;;;;;;;1.20;1.15;;;;;;;26.36;51.43;99264.02;125095;1092;64293;-80
2021/08/09 14:18:42;;;;;;;2.30;1.40;;;;;;;26.31;51.28;99271.13;125116;1093;64287;-80
2021/08/09 14:21:08;;;;;;;1.70;1.47;;;;;;;26.29;51.13;99268.58;125120;1093;64411;-80
2021/08/09 14:23:35;;;;;;;4.10;1.50;;;;;;;26.24;50.73;99265.59;125107;1092;64331;-80
2021/08/09 14:26:03;;;;;;;2.77;1.40;;;;;;;26.19;49.81;99266.17;125151;1093;64156;-80
2021/08/09 14:28:30;;;;;;;1.20;1.10;;;;;;;26.20;50.24;99258.84;125134;1093;64676;-81
2021/08/09 14:30:56;;;;;;;1.20;1.10;;;;;;;26.18;49.04;99256.30;125070;1093;64284;-80
2021/08/09 14:33:23;;;;;;;2.70;1.53;;;;;;;26.16;49.07;99244.72;125141;1093;64284;-80
2021/08/09 14:35:49;;;;;;;2.00;1.40;;;;;;;26.12;48.84;99251.64;125128;1093;64268;-80
2021/08/09 14:38:16;;;;;;;2.00;1.23;;;;;;;26.16;48.33;99246.61;125139;1093;64191;-80
2021/08/09 14:40:42;;;;;;;1.40;1.30;;;;;;;26.21;48.80;99241.41;124950;1093;64361;-81
2021/08/09 14:43:09;;;;;;;1.63;1.30;;;;;;;26.22;49.17;99241.19;125105;1093;64309;-81
2021/08/09 14:45:38;;;;;;;1.70;1.50;;;;;;;26.27;49.53;99240.60;125126;1093;64270;-81
2021/08/09 14:48:04;;;;;;;4.70;1.48;;;;;;;26.35;49.92;99237.72;125118;1093;64274;-81
2021/08/09 14:50:31;;;;;;;1.20;1.10;;;;;;;26.34;48.61;99241.50;125007;1093;64216;-81
2021/08/09 14:52:58;;;;;;;1.40;1.30;;;;;;;26.31;48.16;99238.34;125137;1093;64280;-81
2021/08/09 14:55:24;;;;;;;1.30;1.20;;;;;;;26.33;49.10;99236.23;125129;1093;64206;-81
2021/08/09 14:57:50;;;;;;;2.67;1.60;;;;;;;26.35;49.29;99240.45;125122;1093;64268;-81
2021/08/09 15:00:17;;;;;;;2.17;1.50;;;;;;;26.41;49.39;99236.08;125074;1093;64306;-81
2021/08/09 15:02:44;;;;;;;2.50;1.40;;;;;;;26.41;49.52;99247.00;125077;1093;64247;-81
2021/08/09 15:05:11;;;;;;;2.23;1.20;;;;;;;26.39;49.41;99238.19;125097;1093;64245;-81
2021/08/09 15:07:37;;;;;;;1.63;1.20;;;;;;;26.41;49.87;99231.48;125107;1093;64395;-81
2021/08/09 15:10:05;;;;;;;1.47;1.37;;;;;;;26.47;49.99;99232.56;125082;1093;64357;-81
2021/08/09 15:12:31;;;;;;;1.83;1.73;;;;;;;26.47;49.99;99225.20;125093;1093;64273;-81
2021/08/09 15:14:58;;;;;;;2.60;1.47;;;;;;;26.48;49.37;99226.88;125116;1091;64284;-81
2021/08/09 15:17:26;;;;;;;2.17;1.40;;;;;;;26.43;49.80;99221.16;125097;1092;64213;-82
2021/08/09 15:19:53;;;;;;;1.93;1.70;;;;;;;26.45;49.83;99223.72;125103;1092;64276;-81
2021/08/09 15:22:19;;;;;;;2.67;1.30;;;;;;;26.47;49.71;99225.20;125116;1093;64294;-81
2021/08/09 15:24:46;;;;;;;1.33;1.20;;;;;;;26.46;49.32;99220.80;125177;1093;64290;-79
2021/08/09 15:27:13;;;;;;;1.40;1.30;;;;;;;26.45;49.38;99223.72;125098;1093;64307;-80
2021/08/09 15:29:40;;;;;;;1.40;1.30;;;;;;;26.43;48.57;99218.44;125106;1093;64351;-80
2021/08/09 15:32:07;;;;;;;1.60;1.50;;;;;;;26.27;47.38;99225.05;125090;1093;64399;-80
2021/08/09 15:34:34;;;;;;;6.97;1.80;;;;;;;26.20;47.35;99221.44;125125;1093;64267;-81
2021/08/09 15:37:01;;;;;;;1.67;1.37;;;;;;;26.13;47.42;99217.80;125097;1093;64241;-80
2021/08/09 15:39:28;;;;;;;2.67;1.40;;;;;;;26.13;47.99;99223.27;125108;1093;64297;-80
2021/08/09 15:41:56;;;;;;;1.33;1.23;;;;;;;26.10;47.07;99215.47;125098;1093;64315;-80
2021/08/09 15:44:23;;;;;;;1.83;1.30;;;;;;;26.10;46.71;99223.66;125074;1092;64449;-80
2021/08/09 15:46:51;;;;;;;1.57;1.27;;;;;;;26.04;47.03;99228.03;125076;1093;65757;-80
2021/08/09 15:49:23;;;;;;;1.50;1.20;;;;;;;26.04;47.23;99222.57;125071;1093;64313;-80
2021/08/09 15:51:51;;;;;;;2.73;1.93;;;;;;;26.03;46.84;99223.59;125116;1093;64303;-80
2021/08/09 15:54:21;;;;;;;2.60;1.50;;;;;;;26.07;47.12;99229.53;125087;1092;64164;-80
2021/08/09 15:56:50;;;;;;;1.73;1.40;;;;;;;26.11;46.76;99221.77;125000;1093;64222;-80
2021/08/09 15:59:18;;;;;;;3.00;1.70;;;;;;;26.10;46.54;99220.09;125101;1093;64260;-80
2021/08/09 16:01:46;;;;;;;4.33;1.70;;;;;;;26.04;46.61;99225.30;125130;1093;64276;-80
2021/08/09 16:04:14;;;;;;;2.53;1.53;;;;;;;26.03;46.73;99226.33;125121;1092;64361;-80
2021/08/09 16:06:50;;;;;;;1.77;1.67;;;;;;;26.03;46.39;99223.59;125090;1093;64194;-80
2021/08/09 16:09:18;;;;;;;2.13;1.50;;;;;;;26.04;47.11;99219.84;125086;1093;64357;-80
2021/08/09 16:11:46;;;;;;;1.98;1.58;;;;;;;26.07;47.80;99218.60;125185;1093;64338;-80
2021/08/09 16:14:14;;;;;;;4.97;1.67;;;;;;;26.09;47.74;99212.92;125171;1093;64285;-80
2021/08/09 16:16:42;;;;;;;2.70;1.50;;;;;;;26.06;48.09;99214.16;125159;1093;64318;-80
2021/08/09 16:19:11;;;;;;;2.80;1.55;;;;;;;26.03;47.45;99212.67;125082;1092;64288;-80
2021/08/09 16:21:39;;;;;;;1.40;1.30;;;;;;;26.02;47.10;99218.34;125131;1092;64271;-80
2021/08/09 16:24:07;;;;;;;2.90;1.60;;;;;;;25.95;47.68;99211.97;125128;1093;64309;-80
2021/08/09 16:26:35;;;;;;;1.83;1.70;;;;;;;25.83;47.51;99212.48;125137;1093;64191;-80
2021/08/09 16:29:03;;;;;;;2.07;1.73;;;;;;;25.71;47.55;99207.73;125155;1093;64245;-80
2021/08/09 16:31:32;;;;;;;2.47;1.90;;;;;;;25.68;47.85;99208.97;125142;1093;64271;-80
2021/08/09 16:34:00;;;;;;;2.37;1.90;;;;;;;25.65;48.24;99209.36;125141;1093;64294;-80
2021/08/09 16:36:28;;;;;;;3.23;1.67;;;;;;;25.62;48.17;99209.75;125035;1093;64194;-80
2021/08/09 16:38:55;;;;;;;1.77;1.63;;;;;;;25.56;47.95;99203.16;124978;1093;64182;-81
2021/08/09 16:41:23;;;;;;;2.33;1.70;;;;;;;25.51;48.24;99197.44;125133;1093;64335;-81
2021/08/09 16:43:50;;;;;;;2.47;2.07;;;;;;;25.49;48.21;99206.86;125370;1093;64268;-80
2021/08/09 16:46:17;;;;;;;3.27;1.80;;;;;;;25.47;48.33;99200.77;124921;1092;64428;-81
2021/08/09 16:48:44;;;;;;;2.70;2.50;;;;;;;25.40;48.21;99197.96;125079;1093;64357;-81
2021/08/09 16:51:15;;;;;;;2.40;1.80;;;;;;;25.33;48.59;99202.48;125221;1093;64268;-81
2021/08/09 16:53:44;;;;;;;3.83;2.00;;;;;;;25.28;48.76;99203.09;125409;1092;64307;-80
2021/08/09 16:56:14;;;;;;;;;;;;;;;25.22;48.96;99194.81;125491;1093;64366;-80
2021/08/09 16:58:43;;;;;;;2.23;2.03;;;;;;;25.14;49.21;99193.02;125273;1092;64300;-79
2021/08/09 17:01:14;;;;;;;2.05;1.90;;;;;;;25.08;49.50;99199.25;125235;1093;64277;-80
2021/08/09 17:03:42;;;;;;;2.20;1.70;;;;;;;25.00;49.48;99197.47;125056;1093;64244;-81
2021/08/09 17:06:09;;;;;;;2.30;2.00;;;;;;;24.95;49.86;99195.30;125017;1093;64363;-80
2021/08/09 17:08:36;;;;;;;2.35;2.00;;;;;;;24.88;50.22;99191.67;125001;1093;64348;-80
2021/08/09 17:11:08;;;;;;;4.83;2.20;;;;;;;24.87;50.21;99194.58;125014;1093;64312;-80
2021/08/09 17:13:35;;;;;;;2.27;2.10;;;;;;;25.09;50.51;99198.19;124995;1093;64315;-81
2021/08/09 17:16:02;;;;;;;2.23;1.73;;;;;;;25.23;49.98;99194.64;125120;1093;64271;-80
2021/08/09 17:18:30;;;;;;;2.13;2.00;;;;;;;25.09;50.05;99196.34;125126;1093;64244;-80
2021/08/09 17:21:00;;;;;;;3.47;2.33;;;;;;;24.92;50.19;99198.42;125182;1093;64268;-80
2021/08/09 17:23:27;;;;;;;2.70;2.23;;;;;;;24.77;50.30;99200.31;125119;1093;64410;-81
2021/08/09 17:25:55;;;;;;;4.67;2.47;;;;;;;24.59;51.02;99197.96;125163;1093;64621;-81
2021/08/09 17:28:22;;;;;;;3.47;2.30;;;;;;;24.52;51.50;99194.32;125109;1092;64410;-81
2021/08/09 17:30:50;;;;;;;4.20;2.50;;;;;;;24.64;51.83;99189.23;125094;1093;64363;-81
2021/08/09 17:33:17;;;;;;;2.20;2.00;;;;;;;24.80;51.65;99190.91;125135;1093;64274;-81
2021/08/09 17:35:44;;;;;;;4.80;2.47;;;;;;;24.96;51.93;99188.84;125089;1093;64406;-81
2021/08/09 17:38:11;;;;;;;3.50;2.47;;;;;;;25.02;51.85;99198.13;125138;1093;64300;-81
2021/08/09 17:40:40;;;;;;;4.30;2.20;;;;;;;25.02;51.64;99191.84;125090;1093;64321;-81
2021/08/09 17:43:08;;;;;;;2.80;2.20;;;;;;;24.91;51.87;99194.02;125094;1093;64239;-81
2021/08/09 17:45:39;;;;;;;4.77;2.30;;;;;;;24.76;52.02;99187.73;125115;1093;64216;-81
2021/08/09 17:48:08;;;;;;;5.13;2.77;;;;;;;24.52;52.15;99191.59;125099;1093;64241;-80
2021/08/09 17:50:36;;;;;;;4.50;3.23;;;;;;;24.29;52.72;99199.80;125099;1093;64284;-81
2021/08/09 17:53:02;;;;;;;7.27;5.53;;;;;;;24.09;53.04;99199.48;125082;1093;64387;-81
2021/08/09 17:55:29;;;;;;;6.73;5.70;;;;;;;23.91;53.38;99197.11;125133;1093;64223;-81
2021/08/09 17:57:56;;;;;;;6.67;5.03;;;;;;;23.71;53.93;99199.44;125068;1093;64284;-81
2021/08/09 18:00:23;;;;;;;5.40;4.70;;;;;;;23.53;54.63;99202.46;125089;1092;64457;-81
2021/08/09 18:02:50;;;;;;;5.05;4.30;;;;;;;23.34;55.25;99208.38;125129;1094;64265;-81
2021/08/09 18:05:18;;;;;;;6.33;3.87;;;;;;;23.15;55.76;99207.81;125125;1093;64370;-81
2021/08/09 18:07:47;;;;;;;5.70;4.20;;;;;;;22.94;56.88;99205.67;125156;1093;64264;-81
2021/08/09 18:10:14;;;;;;;7.97;4.20;;;;;;;22.74;57.85;99207.11;125082;1093;64287;-81
2021/08/09 18:12:41;;;;;;;7.80;4.30;;;;;;;22.55;58.63;99214.64;125107;1092;64280;-81
2021/08/09 18:15:08;;;;;;;10.00;5.00;;;;;;;22.39;59.39;99214.69;125120;1093;64344;-81
2021/08/09 18:17:35;;;;;;;7.65;5.20;;;;;;;22.22;60.09;99215.73;125133;1093;64294;-81
2021/08/09 18:20:03;;;;;;;10.50;4.70;;;;;;;22.03;61.22;99215.05;125080;1093;64360;-81
2021/08/09 18:22:30;;;;;;;8.33;6.57;;;;;;;21.85;61.49;99217.08;125074;1093;64191;-81
2021/08/09 18:24:57;;;;;;;9.37;7.57;;;;;;;21.67;62.34;99228.96;125050;1092;64351;-81
2021/08/09 18:27:24;;;;;;;9.37;8.20;;;;;;;21.53;62.57;99221.47;125100;1093;64699;-81
2021/08/09 18:29:51;;;;;;;12.87;9.07;;;;;;;21.42;63.08;99228.06;125062;1093;64271;-81
2021/08/09 18:32:18;;;;;;;11.35;8.65;;;;;;;21.31;63.62;99230.22;125087;1093;64284;-81
2021/08/09 18:34:45;;;;;;;12.60;8.77;;;;;;;21.21;64.16;99235.78;125075;1093;64226;-80
2021/08/09 18:37:12;;;;;;;9.83;8.40;;;;;;;21.14;64.39;99238.28;125031;1093;64335;-81
2021/08/09 18:39:39;;;;;;;12.63;9.63;;;;;;;21.04;64.71;99243.86;125086;1093;64291;-81
2021/08/09 18:42:06;;;;;;;23.30;18.30;;;;;;;20.95;65.08;99241.27;125071;1093;64281;-81
2021/08/09 18:44:34;;;;;;;29.83;23.40;;;;;;;20.87;65.27;99241.24;125082;1093;64188;-81
2021/08/09 18:47:01;;;;;;;25.70;21.17;;;;;;;20.78;65.72;99243.08;125098;1093;64276;-81
2021/08/09 18:49:28;;;;;;;30.80;23.03;;;;;;;20.68;66.64;99239.63;125069;1093;64438;-81
2021/08/09 18:51:54;;;;;;;36.00;29.10;;;;;;;20.60;66.81;99246.70;125052;1093;64290;-81
2021/08/09 18:54:21;;;;;;;39.45;29.80;;;;;;;20.54;67.22;99251.92;125100;1092;64287;-81
2021/08/09 18:56:48;;;;;;;35.27;28.07;;;;;;;20.46;67.57;99247.27;125075;1093;64293;-81
2021/08/09 18:59:18;;;;;;;36.60;27.97;;;;;;;20.42;67.42;99254.00;125148;1093;64248;-81
2021/08/09 19:01:45;;;;;;;27.30;21.53;;;;;;;20.39;67.95;99248.91;125182;1092;64271;-81
2021/08/09 19:04:12;;;;;;;34.30;26.05;;;;;;;20.35;68.60;99255.64;125095;1092;64319;-81
2021/08/09 19:06:39;;;;;;;29.53;25.80;;;;;;;20.32;68.65;99256.80;125123;1093;64284;-81
2021/08/09 19:09:05;;;;;;;31.47;24.90;;;;;;;20.26;69.06;99256.60;125116;1093;64271;-81
2021/08/09 19:11:38;;;;;;;26.60;22.33;;;;;;;20.19;69.15;99256.37;125095;1093;64191;-81
2021/08/09 19:14:06;;;;;;;26.33;21.27;;;;;;;20.12;69.62;99249.91;125038;1093;64290;-81
2021/08/09 19:16:33;;;;;;;28.23;19.63;;;;;;;20.07;69.66;99252.23;125123;1093;64444;-81
2021/08/09 19:18:59;;;;;;;28.35;18.95;;;;;;;20.03;70.01;99246.27;125098;1092;64306;-81
2021/08/09 19:21:26;;;;;;;28.80;18.30;;;;;;;20.00;69.90;99249.30;125108;1093;64260;-81
2021/08/09 19:23:53;;;;;;;21.40;18.20;;;;;;;19.98;70.50;99247.75;125122;1093;64284;-81
2021/08/09 19:26:19;;;;;;;30.20;21.20;;;;;;;19.94;71.07;99248.06;125109;1093;64391;-81
2021/08/09 19:28:46;;;;;;;23.97;19.93;;;;;;;19.90;71.19;99252.08;125149;1094;64531;-81
2021/08/09 19:31:15;;;;;;;23.67;18.43;;;;;;;19.84;71.53;99247.30;125077;1093;64402;-82
2021/08/09 19:33:42;;;;;;;26.07;18.60;;;;;;;19.79;71.61;99252.33;125136;1093;64213;-81
2021/08/09 19:36:10;;;;;;;25.25;19.00;;;;;;;19.75;72.32;99253.66;125185;1093;64241;-81
2021/08/09 19:38:36;;;;;;;23.57;18.70;;;;;;;19.69;72.55;99249.69;125123;1093;64328;-82
2021/08/09 19:41:04;;;;;;;23.57;18.83;;;;;;;19.66;72.76;99249.13;125141;1093;64310;-82
2021/08/09 19:43:35;;;;;;;22.73;18.30;;;;;;;19.63;72.86;99255.70;125080;1093;64294;-81
2021/08/09 19:46:07;;;;;;;26.40;19.47;;;;;;;19.59;73.58;99259.73;125137;1093;64263;-82
2021/08/09 19:48:37;;;;;;;22.73;16.83;;;;;;;19.55;73.24;99262.89;125154;1093;64287;-81
2021/08/09 19:51:05;;;;;;;21.17;17.47;;;;;;;19.50;73.47;99263.34;125105;1092;64415;-82
2021/08/09 19:53:32;;;;;;;17.90;16.00;;;;;;;19.46;73.89;99260.10;125125;1093;64192;-82
2021/08/09 19:55:58;;;;;;;20.50;15.20;;;;;;;19.42;74.25;99252.45;125090;1093;64293;-81
2021/08/09 19:58:25;;;;;;;18.73;15.77;;;;;;;19.38;74.10;99253.73;125104;1093;64262;-81
2021/08/09 20:00:52;;;;;;;25.23;17.47;;;;;;;19.36;74.45;99253.06;125081;1093;64310;-81
2021/08/09 20:03:18;;;;;;;21.00;15.63;;;;;;;19.34;74.85;99260.47;125069;1092;64413;-82
2021/08/09 20:05:45;;;;;;;21.03;16.17;;;;;;;19.27;75.22;99252.98;125066;1093;64389;-82
2021/08/09 20:08:13;;;;;;;20.03;16.80;;;;;;;19.24;75.01;99258.66;125120;1093;64335;-82
2021/08/09 20:10:39;;;;;;;20.00;15.97;;;;;;;19.22;75.65;99254.41;125072;1093;64245;-81
2021/08/09 20:13:10;;;;;;;24.65;17.05;;;;;;;19.18;75.69;99243.06;125062;1093;64284;-81
2021/08/09 20:15:38;;;;;;;20.27;17.73;;;;;;;19.14;75.89;99241.69;125110;1093;64226;-81
2021/08/09 20:18:06;;;;;;;20.70;17.63;;;;;;;19.08;76.11;99251.22;125142;1093;64287;-81
2021/08/09 20:20:34;;;;;;;24.10;18.73;;;;;;;19.02;76.17;99249.13;125136;1093;64329;-81
2021/08/09 20:23:02;;;;;;;21.90;17.40;;;;;;;19.00;76.09;99250.28;125133;1093;64351;-81
2021/08/09 20:25:29;;;;;;;20.03;17.30;;;;;;;18.97;76.60;99255.98;125152;1093;64184;-81
2021/08/09 20:27:57;;;;;;;22.70;18.57;;;;;;;18.92;76.31;99247.48;125052;1093;64827;-81
2021/08/09 20:30:24;;;;;;;20.10;17.03;;;;;;;18.84;76.88;99254.47;125155;1093;64171;-81
2021/08/09 20:32:51;;;;;;;18.65;16.65;;;;;;;18.77;77.34;99245.29;125175;1093;64405;-81
2021/08/09 20:35:18;;;;;;;21.25;17.80;;;;;;;18.73;77.16;99243.00;125111;1093;64268;-81
2021/08/09 20:37:47;;;;;;;26.20;20.15;;;;;;;18.69;77.72;99246.98;125113;1093;64273;-81
2021/08/09 20:40:15;;;;;;;23.80;20.10;;;;;;;18.65;77.92;99251.83;125137;1093;64238;-81
2021/08/09 20:42:46;;;;;;;23.40;19.83;;;;;;;18.59;78.45;99247.03;125118;1092;64265;-81
2021/08/09 20:45:13;;;;;;;;;;;;;;;18.56;78.92;99247.30;125109;1093;64291;-81
2021/08/09 20:47:41;;;;;;;20.50;16.03;;;;;;;18.55;78.71;99261.81;125115;1091;64271;-81
2021/08/09 20:50:10;;;;;;;18.67;14.83;;;;;;;18.53;78.98;99261.95;125135;1093;64273;-81
2021/08/09 20:52:37;;;;;;;19.03;14.97;;;;;;;18.53;79.08;99259.24;125063;1092;64374;-81
2021/08/09 20:55:05;;;;;;;18.57;14.80;;;;;;;18.53;79.16;99255.70;125188;1093;64367;-81
2021/08/09 20:57:31;;;;;;;15.63;13.93;;;;;;;18.51;78.69;99263.09;125123;1091;64358;-81
2021/08/09 20:59:58;;;;;;;17.00;14.43;;;;;;;18.48;79.13;99261.53;125120;1093;64211;-81
2021/08/09 21:02:24;;;;;;;18.27;15.50;;;;;;;18.46;79.17;99263.55;125088;1093;64194;-81
2021/08/09 21:04:51;;;;;;;18.60;16.60;;;;;;;18.43;79.60;99259.30;125117;1093;64396;-81
2021/08/09 21:07:17;;;;;;;20.97;18.43;;;;;;;18.38;79.47;99266.13;125096;1093;64401;-81
2021/08/09 21:09:44;;;;;;;21.13;18.00;;;;;;;18.36;79.64;99265.42;125152;1093;64280;-81
2021/08/09 21:12:12;;;;;;;23.80;19.17;;;;;;;18.37;79.67;99262.56;125110;1093;64265;-81
2021/08/09 21:14:38;;;;;;;21.53;18.53;;;;;;;18.36;80.23;99252.77;125136;1093;64390;-81
2021/08/09 21:17:05;;;;;;;23.47;18.10;;;;;;;18.34;80.26;99260.16;124959;1093;64201;-81
2021/08/09 21:19:32;;;;;;;21.90;18.33;;;;;;;18.33;79.97;99255.77;125119;1093;64370;-81
2021/08/09 21:21:59;;;;;;;23.00;16.17;;;;;;;18.29;80.24;99256.20;125091;1093;64257;-81
2021/08/09 21:24:25;;;;;;;25.00;19.93;;;;;;;18.28;80.12;99254.51;125125;1093;64290;-81
2021/08/09 21:26:52;;;;;;;19.03;14.33;;;;;;;18.23;80.43;99251.39;125109;1093;64157;-81
2021/08/09 21:29:19;;;;;;;17.17;13.97;;;;;;;18.17;80.66;99256.37;125053;1093;64351;-81
2021/08/09 21:31:45;;;;;;;16.23;12.10;;;;;;;18.13;80.93;99254.94;125138;1093;64232;-81
2021/08/09 21:34:12;;;;;;;21.30;14.37;;;;;;;18.11;80.85;99254.23;125059;1093;64312;-81
2021/08/09 21:36:39;;;;;;;16.20;12.57;;;;;;;18.09;80.91;99253.55;125084;1093;64272;-81
2021/08/09 21:39:05;;;;;;;15.97;11.63;;;;;;;18.10;81.21;99251.70;125085;1093;64242;-81
2021/08/09 21:41:32;;;;;;;15.80;12.47;;;;;;;18.08;81.20;99254.52;125102;1092;64214;-81
2021/08/09 21:44:00;;;;;;;18.93;13.27;;;;;;;18.07;81.33;99249.30;125125;1093;64389;-81
2021/08/09 21:46:28;;;;;;;15.95;13.10;;;;;;;18.06;81.35;99252.97;125132;1091;64293;-81
2021/08/09 21:48:54;;;;;;;19.27;14.10;;;;;;;18.05;81.54;99249.42;125179;1092;64187;-81
2021/08/09 21:51:21;;;;;;;19.37;15.57;;;;;;;18.03;81.43;99248.70;125179;1093;64276;-81
2021/08/09 21:53:47;;;;;;;17.97;14.83;;;;;;;17.98;81.77;99249.16;125088;1093;64248;-81
2021/08/09 21:56:14;;;;;;;19.57;15.13;;;;;;;17.92;81.59;99246.17;125119;1093;64188;-81
2021/08/09 21:58:41;;;;;;;19.30;13.65;;;;;;;17.85;81.61;99253.13;125112;1093;64306;-81
2021/08/09 22:01:07;;;;;;;15.90;12.97;;;;;;;17.79;81.92;99259.94;125114;1093;64275;-81
2021/08/09 22:03:36;;;;;;;15.13;12.70;;;;;;;17.73;81.75;99257.80;125193;1093;64287;-81
2021/08/09 22:06:06;;;;;;;15.17;12.77;;;;;;;17.69;81.88;99256.36;125083;1093;64245;-81
2021/08/09 22:08:33;;;;;;;15.78;12.68;;;;;;;17.65;82.39;99246.88;125169;1093;64274;-81
2021/08/09 22:11:02;;;;;;;15.50;13.83;;;;;;;17.63;82.69;99243.46;125210;1093;64193;-81
2021/08/09 22:13:29;;;;;;;17.15;14.25;;;;;;;17.62;82.51;99249.86;125148;1093;64191;-81
2021/08/09 22:15:56;;;;;;;16.70;13.23;;;;;;;17.62;82.92;99241.77;125100;1093;64187;-81
2021/08/09 22:18:22;;;;;;;18.03;13.40;;;;;;;17.62;82.69;99245.31;125376;1093;64341;-81
2021/08/09 22:20:49;;;;;;;16.83;12.37;;;;;;;17.67;83.28;99244.89;125072;1093;64425;-81
2021/08/09 22:23:16;;;;;;;15.70;12.97;;;;;;;17.69;83.33;99245.58;125096;1093;64341;-81
2021/08/09 22:25:42;;;;;;;16.25;12.90;;;;;;;17.72;83.36;99250.68;125069;1093;64307;-81
2021/08/09 22:28:09;;;;;;;14.40;12.10;;;;;;;17.73;83.27;99253.25;125092;1093;64226;-85
2021/08/09 22:30:37;;;;;;;13.30;11.17;;;;;;;17.73;83.35;99247.02;125088;1093;64409;-80
2021/08/09 22:33:05;;;;;;;13.17;10.67;;;;;;;17.73;82.98;99245.16;125186;1093;64273;-80
2021/08/09 22:35:33;;;;;;;14.10;10.67;;;;;;;17.74;83.14;99246.85;125104;1093;64271;-81
2021/08/09 22:38:02;;;;;;;13.30;10.70;;;;;;;17.74;83.35;99246.85;125130;1093;64178;-80
2021/08/09 22:40:29;;;;;;;13.53;11.07;;;;;;;17.73;83.50;99245.16;125063;1093;64273;-81
2021/08/09 22:42:55;;;;;;;12.97;10.90;;;;;;;17.74;83.74;99246.85;125103;1093;64367;-81
2021/08/09 22:45:22;;;;;;;15.50;13.07;;;;;;;17.77;83.48;99251.98;125130;1093;64272;-81
2021/08/09 22:47:49;;;;;;;17.30;13.13;;;;;;;17.75;83.59;99247.73;125074;1091;64361;-81
2021/08/09 22:50:16;;;;;;;17.20;12.97;;;;;;;17.67;84.00;99258.37;125078;1093;64319;-81
2021/08/09 22:52:42;;;;;;;15.63;12.83;;;;;;;17.65;83.94;99250.41;125091;1093;64332;-81
2021/08/09 22:55:10;;;;;;;18.27;13.53;;;;;;;17.67;83.90;99250.28;125064;1092;64345;-81
2021/08/09 22:57:37;;;;;;;17.50;13.23;;;;;;;17.67;84.13;99248.44;125083;1092;64379;-81
2021/08/09 23:00:05;;;;;;;20.13;12.87;;;;;;;17.69;84.76;99256.36;125035;1093;64287;-81
2021/08/09 23:02:32;;;;;;;17.00;12.70;;;;;;;17.68;84.34;99257.36;125138;1093;64188;-81
2021/08/09 23:04:59;;;;;;;19.17;12.50;;;;;;;17.68;84.79;99257.36;125078;1092;64402;-81
2021/08/09 23:07:27;;;;;;;14.63;11.33;;;;;;;17.71;84.82;99262.47;125080;1093;64242;-81
2021/08/09 23:09:54;;;;;;;16.03;12.53;;;;;;;17.71;84.57;99262.47;125153;1090;64312;-81
2021/08/09 23:12:20;;;;;;;15.27;11.27;;;;;;;17.73;84.73;99260.48;125097;1092;64271;-81
2021/08/09 23:14:47;;;;;;;14.07;10.67;;;;;;;17.77;85.04;99262.77;125121;1093;64181;-81
2021/08/09 23:17:14;;;;;;;17.17;11.03;;;;;;;17.81;84.95;99262.51;125102;1091;64289;-81
2021/08/09 23:19:40;;;;;;;13.53;11.53;;;;;;;17.81;84.81;99249.88;125072;1093;64418;-81
2021/08/09 23:22:08;;;;;;;15.70;11.53;;;;;;;17.82;85.13;99250.72;125052;1093;64285;-82
2021/08/09 23:24:34;;;;;;;13.53;12.03;;;;;;;17.81;85.56;99267.91;125077;1093;64280;-80
2021/08/09 23:27:01;;;;;;;15.03;12.23;;;;;;;17.78;85.30;99275.24;125090;1093;64271;-81
2021/08/09 23:29:27;;;;;;;15.13;11.97;;;;;;;17.79;85.28;99273.42;125089;1093;64306;-80
2021/08/09 23:31:55;;;;;;;12.90;10.50;;;;;;;17.81;85.53;99274.14;125060;1092;64261;-80
2021/08/09 23:34:21;;;;;;;14.03;10.63;;;;;;;17.81;85.47;99274.14;125076;1093;64408;-80
2021/08/09 23:36:47;;;;;;;14.07;11.10;;;;;;;17.81;85.45;99274.14;125078;1093;64361;-80
2021/08/09 23:39:14;;;;;;;14.50;11.03;;;;;;;17.79;85.25;99278.81;125111;1093;64281;-80
2021/08/09 23:41:41;;;;;;;12.70;10.90;;;;;;;17.75;85.51;99277.38;125102;1093;64271;-80
2021/08/09 23:44:07;;;;;;;12.20;10.77;;;;;;;17.66;85.85;99286.30;125123;1093;64756;-82
2021/08/09 23:46:34;;;;;;;13.70;11.10;;;;;;;17.62;86.48;99279.50;125085;1093;64195;-80
2021/08/09 23:49:00;;;;;;;13.67;10.87;;;;;;;17.53;86.86;99275.78;125089;1093;64269;-81
2021/08/09 23:51:27;;;;;;;12.60;9.90;;;;;;;17.45;87.68;99263.00;125189;1093;64191;-80
2021/08/09 23:53:53;;;;;;;13.80;10.87;;;;;;;17.43;87.88;99266.83;125140;1093;64244;-80
2021/08/09 23:56:20;;;;;;;14.23;9.77;;;;;;;17.44;88.10;99269.40;125088;1093;64406;-80
2021/08/09 23:58:47;;;;;;;15.30;10.97;;;;;;;17.43;87.83;99274.91;125124;1093;64188;-80
